createdAt,value
2023-01-20T05:47:36.510Z,100266.31
2023-01-20T05:53:49.235Z,100266.69
2023-01-20T05:55:07.315Z,100269.47
2023-01-20T06:00:53.086Z,100263.09
2023-01-20T06:02:05.649Z,100271.50
2023-01-20T06:03:41.445Z,100274.50
2023-01-20T06:04:57.025Z,100274.72
2023-01-20T06:06:19.479Z,100277.38
2023-01-20T06:07:35.071Z,100277.44
2023-01-20T06:08:54.842Z,100278.38
2023-01-20T06:10:44.667Z,100278.16
2023-01-20T06:11:57.697Z,100282.72
2023-01-20T18:50:55.159Z,100858.84
2023-01-20T18:52:33.788Z,100855.47
2023-01-20T18:54:02.769Z,100853.66
2023-01-20T18:55:28.437Z,100852.53
2023-01-20T18:57:23.365Z,100856.56
2023-01-20T18:59:10.265Z,100860.09
2023-01-20T19:00:21.209Z,100867.84
2023-01-20T19:01:29.031Z,100864.78
2023-01-20T19:02:38.462Z,100868.13
2023-01-20T19:03:48.024Z,100866.53
2023-01-20T19:04:57.641Z,100865.09
2023-01-20T19:06:18.629Z,100872.78
2023-01-20T19:07:30.904Z,100878.75
2023-01-20T19:08:55.506Z,100881.16
2023-01-20T19:10:06.991Z,100883.72
2023-01-20T19:11:19.225Z,100887.06
2023-01-20T19:12:28.817Z,100886.72
2023-01-20T19:13:42.924Z,100881.25
2023-01-20T19:14:54.279Z,100879.16
2023-01-20T19:16:04.024Z,100896.69
2023-01-20T19:17:58.585Z,100899.75
2023-01-20T19:19:27.096Z,100900.69
2023-01-20T19:21:06.468Z,100891.22
2023-01-20T19:22:14.894Z,100891.03
2023-01-20T19:23:19.683Z,100901.19
2023-01-20T19:24:32.324Z,100902.44
2023-01-20T19:25:36.694Z,100899.56
2023-01-20T19:32:39.505Z,100903.69
2023-01-20T19:34:03.052Z,100901.63
2023-01-20T19:35:13.387Z,100907.53
2023-01-20T19:36:33.906Z,100910.13
2023-01-20T19:38:10.116Z,100905.28
2023-01-20T19:42:28.181Z,100922.19
2023-01-20T19:43:33.261Z,100924.38
2023-01-20T19:44:42.901Z,100924.00
2023-01-20T19:45:56.219Z,100926.38
2023-01-20T19:47:23.610Z,100930.03
2023-01-20T19:48:47.498Z,100933.88
2023-01-20T19:58:16.780Z,100948.13
2023-01-20T19:59:42.523Z,100952.41
2023-01-20T20:00:56.148Z,100950.19
2023-01-20T20:02:16.327Z,100955.66
2023-01-20T20:03:57.417Z,100961.75
2023-01-20T20:05:34.608Z,100959.13
2023-01-20T20:06:50.215Z,100959.81
2023-01-20T21:35:21.213Z,101064.47
2023-01-20T22:00:19.018Z,101110.56
2023-01-20T22:09:25.380Z,101119.25
2023-01-20T22:10:32.167Z,101121.47
2023-01-20T22:11:42.446Z,101113.84
2023-01-20T22:12:52.673Z,101124.78
2023-01-20T22:13:57.145Z,101129.53
2023-01-20T22:15:07.732Z,101120.47
2023-01-20T22:16:16.101Z,101122.69
2023-01-20T22:17:23.121Z,101131.06
2023-01-20T22:18:27.421Z,101125.81
2023-01-20T22:19:34.818Z,101122.09
2023-01-20T22:20:41.860Z,101117.00
2023-01-20T22:21:47.430Z,101123.50
2023-01-20T22:22:51.722Z,101131.47
2023-01-20T22:23:55.082Z,101131.16
2023-01-20T22:25:00.869Z,101127.91
2023-01-20T22:26:08.204Z,101127.34
2023-01-20T22:27:21.169Z,101133.00
2023-01-20T22:28:26.325Z,101126.91
2023-01-20T22:29:35.080Z,101131.16
2023-01-20T22:30:38.421Z,101131.16
2023-01-20T22:31:46.522Z,101132.59
2023-01-20T22:32:53.470Z,101126.50
2023-01-20T22:34:00.039Z,101126.72
2023-01-20T22:35:04.943Z,101138.69
2023-01-20T22:36:28.156Z,101131.84
2023-01-20T22:38:52.070Z,101135.31
2023-01-20T22:39:56.321Z,101137.63
2023-01-20T22:41:11.503Z,101140.88
2023-01-20T22:59:19.941Z,101161.59
2023-01-20T23:00:24.411Z,101170.13
2023-01-20T23:01:35.633Z,101168.59
2023-01-20T23:02:41.610Z,101179.19
2023-01-20T23:03:50.500Z,101179.38
2023-01-20T23:04:55.116Z,101179.59
2023-01-20T23:06:00.646Z,101171.09
2023-01-20T23:07:08.338Z,101182.75
2023-01-20T23:08:12.632Z,101176.25
2023-01-20T23:09:18.600Z,101174.34
2023-01-20T23:10:42.399Z,101181.22
2023-01-20T23:11:46.272Z,101179.41
2023-01-20T23:12:52.037Z,101177.34
2023-01-20T23:13:55.343Z,101176.25
2023-01-20T23:15:03.050Z,101175.97
